x

Santa Monica Basin - 33nm Wsw Of Santa Monica, Ca (46025) Wave Buoy

8:50 - Sun 29th May 2016 All times are PDT. -7 hours from GMT.

  • Sig Wave height 3.0ft
  • Swell Direction
  • Peak Period 14s
  • Average Period 7s
  • Wind
    9mph
  • Sea Temp 64°f
  • Aire Temp 60°f
  • Sea Pressure 1016.1mb
  • Santa Monica Basin - 33nm Wsw Of Santa Monica, Ca
  • Santa Monica Basin - 33nm Wsw Of Santa Monica, Ca

More Historic Weather Station data

Upgrade to MSW Pro to gain access to the past 30 days of data for over 8000 Wavebouys and Weather Stations around the globe.

Join Pro

Comparision Forecast

View Surf forecast
   
dom 05/29 8:50 3ft 14s 7s 9
mph
1016.1mb 64f 60f
7:50 3ft 14s 7s 7 9 mph 1015.8mb 64f 60f
6:50 2.5ft 14s 7s 7 9 mph 1015.4mb 64f 61f
5:50 2.5ft 15s 8s 9 11 mph 1015.3mb 65f 61f
3:50 2.5ft 15s 8s 9 11 mph 1015.7mb 65f 60f
2:50 2.5ft 15s 8s 9 11 mph 1016.3mb 65f 60f
1:50 2.5ft 15s 7s 9 11 mph 1016.8mb 65f 60f
12:50 2.5ft 15s 7s 9 11 mph 1017.1mb 64f 60f
11:50 2.5ft 14s 7s 7 9 mph 1017.3mb 64f 60f
10:50 2.5ft 15s 7s 4 7 mph 1017.2mb 64f 60f
9:50 2.5ft 14s  -  4 7 mph 1017.1mb 64f 60f
8:50 2.5ft 14s 7s 7
mph
1016.9mb 63f 60f
7:50 2.5ft 15s 8s 4 7 mph 1016.5mb 63f 60f
6:50 2.5ft 14s 7s 2
mph
1015.8mb 63f 60f
5:50 2.5ft 15s 7s 2 4 mph 1015.4mb 63f 60f
4:50 3ft 16s 7s 2
mph
1015mb 63f 59f
3:50 3ft 15s 7s 2 4 mph 1014.8mb 63f 59f
2:50 2.5ft 14s 7s 2 4 mph 1014.7mb 63f 59f
1:50 3ft 15s 7s 2 4 mph 1014.8mb 63f 59f
12:50 2.5ft 15s 7s 4
mph
1015.2mb 63f 58f
sáb 05/28 11:50 2.5ft 15s 7s 4 7 mph 1015.1mb 63f 59f
10:50 3ft 15s 7s 2 7 mph 1015.2mb 63f 58f
9:50 3ft 15s 7s 2 4 mph 1014.8mb 63f 59f
8:50 3.5ft 15s 8s 4 9 mph 1014.2mb 63f 58f
7:50 2.5ft 15s 7s 4 7 mph 1013.4mb 63f 58f
6:50 3ft 15s 7s 7 9 mph 1012.8mb 64f 58f
5:50 2.5ft 15s 6s 11 13 mph 1012.1mb 64f 59f
4:50 2.5ft 15s 6s 13 16 mph 1011.9mb 64f 58f
3:50 2.5ft 15s 6s 11 13 mph 1012.3mb 64f 59f
2:50 2.5ft 15s 6s 11 13 mph 1012.4mb 64f 58f
1:50 3ft 15s 6s 11 13 mph 1012.8mb 64f 58f
12:50 2.5ft 16s 6s 11
mph
1013.3mb 64f 58f
11:50 2.5ft 15s 6s 9 11 mph 1013.3mb 64f 58f
10:50 2.5ft 15s 6s 9
mph
1013mb 63f 58f
9:50 2.5ft 16s 6s 9 11 mph 1013mb 63f 58f
8:50 2.5ft 15s 6s 7 9 mph 1012.5mb 63f 58f
7:50 2.5ft 16s 6s 4 7 mph 1012.2mb 63f 58f
6:50 2.5ft 16s 6s 2 4 mph 1011.5mb 63f 58f
5:50 2.5ft 15s 5s 4 7 mph 1011mb 63f 58f
4:50 2.5ft 16s 5s 7 9 mph 1010.7mb 63f 59f
3:50 3ft 16s 5s 4 7 mph 1010.5mb 63f 59f
2:50 3ft 6s 5s 2 4 mph 1010.8mb 63f 58f
1:50 3ft 5s 5s 4 7 mph 1011.2mb 63f 59f
12:50 3.5ft 6s 5s  -  4 mph 1011.6mb 63f 59f
vie 05/27 11:50 3.5ft 6s 5s 4 7 mph 1012mb 63f 58f
10:50 3.5ft 6s 5s 4 9 mph 1012.2mb 63f 59f
9:50 3.5ft 6s 5s 7 9 mph 1011.8mb 63f 59f
8:50 3ft 7s 5s 11 13 mph 1011.9mb 63f 59f
7:50 2.5ft 8s 5s 13
mph
1011.5mb 63f 60f
6:50 2.5ft 8s 6s 11 13 mph 1011.2mb 63f 59f
5:50 2.5ft 9s 6s 11 16 mph 1011.1mb 63f 59f
4:50 2.5ft 9s 6s 9 11 mph 1011.3mb 63f 60f
3:50 2.5ft 8s 5s 11 16 mph 1011.8mb 63f 60f
2:50 2.5ft 16s 5s 7 11 mph 1012.4mb 64f 61f
1:50 2.5ft 6s 5s 7 9 mph 1012.8mb 63f 61f
12:50 2.5ft 7s 5s 7
mph
1013.5mb 64f 61f
11:50 2.5ft 5s 5s 7 9 mph 1013.9mb 64f 61f
10:50 2.5ft 7s 5s 4 7 mph 1014.1mb 63f 62f
9:50 2.5ft 7s 5s 4
mph
1014.4mb 63f 61f
8:50 2.5ft 6s 5s 7 9 mph 1014.7mb 63f 61f
7:50 2.5ft 6s 5s 9 11 mph 1014.8mb 63f 59f
6:50 3ft 8s 5s 9 11 mph 1014.2mb 63f 59f
5:50 3ft 6s 5s 11 16 mph 1013.6mb 63f 59f
4:50 3.5ft 7s 5s 9 11 mph 1013.8mb 63f 60f
3:50 3.5ft 8s 5s 7 9 mph 1013.9mb 63f 60f
2:50 4ft 6s 5s 4 7 mph 1014.3mb 63f 60f
1:50 4ft 6s 5s 4 9 mph 1014.8mb 64f 60f
12:50 4.5ft 7s 5s 4 7 mph 1015.1mb 64f 60f
jue 05/26 11:50 4.5ft 6s 5s 2 4 mph 1014.8mb 64f 60f
10:50 4.5ft 7s 5s 4
mph
1015.1mb 64f 61f
9:50 4.5ft 6s 5s 4 7 mph 1015.1mb 64f 61f
8:50 4.5ft 7s 6s 4 7 mph 1014.8mb 64f 60f
7:50 4.5ft 7s 5s 7 9 mph 1014.8mb 64f 60f
6:50 3.5ft 6s 5s 13 16 mph 1014.8mb 64f 60f
5:50 3ft 6s 5s 7 9 mph 1015.4mb 62f 61f
3:50 2.5ft 6s 5s 13
mph
1016.5mb 63f 60f
2:50 2.5ft 6s 5s 13
mph
1017.2mb 64f 60f
1:50 2.5ft 6s 5s 11 13 mph 1018mb 64f 60f
12:50 3ft 6s 5s 9 11 mph 1018.2mb 64f 60f
11:50 3ft 6s 5s 4
mph
1018.6mb 64f 61f
10:50 3ft 7s 5s 2
mph
1018.9mb 64f 60f
9:50 3.5ft 7s 5s 2
mph
1018.7mb 64f 60f
8:50 3.5ft 6s 5s 2 4 mph 1018.8mb 63f 60f
7:50 3.5ft 7s 5s 2 4 mph 1018.9mb 63f 61f
6:50 3.5ft 6s 5s 4 7 mph 1018.5mb 63f 59f
5:50 3.5ft 8s 5s 9 11 mph 1017.7mb 63f 59f